Inicio METAR Ruta Wind Satelite

Informe Meteorológico

Fecha: 2020/07/02 01:06:46 Local
2020.07.02 06:06 UTC


Estado: VENCIDO
Operación:VFR
Valledupar / Alfonso Lopez, Colombia (SKVP) 10-26N 073-15W
2020.07.01 1900 UTC
Wind: from the SSW (210 degrees) at 9 MPH (8 KT):0
Visibility: greater than 7 mile(s):0
Sky conditions: mostly cloudy
Temperature: 93 F (34 C)
Heat index: 101.8 F (38.8 C):1
Dew Point: 73 F (23 C)
Relative Humidity: 52%
Pressure (altimeter): 29.82 in. Hg (1009 hPa)
ob: SKVP 011900Z 21008KT 9999 FEW020 BKN200 34/23 A2982
cycle: 19

SKVP 011800Z 17005KT 9999 FEW020 BKN200 35/20 A2985
SKVP 011700Z 08005KT 9999 FEW020 SCT200 34/22 A2987
SKVP 011600Z 08007KT 050V150 9999 FEW020 SCT200 32/23 A2989
SKVP 011500Z 08005KT 050V130 FEW020 SCT200 31/23 A2991
SKVP 011400Z 07007KT 9999 FEW020 SCT200 30/22 A2991